KHWDKSAC

Guest
Details From KHWD - Hayward Executive
To KSAC - Sacramento Executive
Flight Number -
Tags Routegen
Created
Modified
Stats Distance 59 nm / 109 km
Max Altitude 0 ft / 0 m
Waypoints 2
Social Downloads 4
Likes 0
Share VATSIM

Download

Looking for another format? Having issues loading an existing format? Contact us
Advertisement - Login to hide

Notes

None

Route

KHWD KSAC

ID Type Via Altitude Latitude Longitude Leg Dist Tot Dist Heading (true) Name
O KHWD APT - 0 ft / 0 m 37.66204˚ -122.12979˚ - 0 nm - -
O KSAC APT - 0 ft / 0 m 38.50520˚ -121.50073˚ 58 nm 58 nm 30° / 31° -

Altitude Profile

Advertisement - Login to hide

KHWD

Details ICAO KHWD (HWD)
Name Hayward Executive
Region United States
Timezone America/Los_Angeles (UTC-8.0)
Stats Elevation 52 ft / 16 m (AMSL)
Location 37.659252° -122.121935°
Runways 2
Magnetic Variation 13.434° E

METAR

KHWD 140954Z AUTO 08004KT 10SM CLR 07/M01 A3006 RMK AO2 SLP189 T00671006

Decode

TAF

Not found

Departure Runways

ID Width Length Bearing (true) Bearing (mag) Surface Threshold Offset Overrun Length
10L 75 ft / 23 m 3,104 ft / 946 m 119.95° 106.52° Asphalt 0 ft / 0 m 0 ft / 0 m
10R 151 ft / 46 m 5,688 ft / 1,734 m 119.95° 106.52° Asphalt 817 ft / 249 m 0 ft / 0 m
28L 151 ft / 46 m 5,688 ft / 1,734 m 299.96° 286.53° Asphalt 676 ft / 206 m 0 ft / 0 m
28R 75 ft / 23 m 3,104 ft / 946 m 299.96° 286.53° Asphalt 0 ft / 0 m 0 ft / 0 m

KSAC

Details ICAO KSAC (SAC)
Name Sacramento Executive
Region United States
Timezone America/Los_Angeles (UTC-8.0)
Stats Elevation 24 ft / 7 m (AMSL)
Location 38.512642° -121.493193°
Runways 3
Magnetic Variation 13.517° E

METAR

KSAC 141027Z AUTO 00000KT 1 3/4SM BR CLR 01/01 A3007 RMK AO2 T00110006 $

Decode

TAF

TAF KSAC 140534Z 1406/1506 00000KT P6SM BKN250 FM140800 00000KT 5SM BR SCT250 TEMPO 1410/1414 1/2SM FG FM141900 VRB04KT P6SM SKC

Decode

Destination Runways

ID Width Length Bearing (true) Bearing (mag) Surface Threshold Offset Overrun Length
02 151 ft / 46 m 5,507 ft / 1,679 m 33.00° 19.48° Asphalt 0 ft / 0 m 0 ft / 0 m
12 98 ft / 30 m 3,834 ft / 1,169 m 133.23° 119.71° Asphalt 0 ft / 0 m 699 ft / 213 m
16 151 ft / 46 m 3,492 ft / 1,064 m 179.61° 166.09° Asphalt 0 ft / 0 m 0 ft / 0 m
20 151 ft / 46 m 5,507 ft / 1,679 m 213.01° 199.49° Asphalt 0 ft / 0 m 0 ft / 0 m
30 98 ft / 30 m 3,834 ft / 1,169 m 313.24° 299.72° Asphalt 0 ft / 0 m 0 ft / 0 m
34 151 ft / 46 m 3,492 ft / 1,064 m 359.61° 346.09° Asphalt 0 ft / 0 m 0 ft / 0 m

Approach Navaids

Runway Type Ident Frequency Range Bearing (true) Bearing (mag) Slope Elevation
02 Localiser ISAC 110.30 MHz 18 nm / 33 km 33.01° 19.49° - 23 ft / 7 m (AMSL)
02 Glidescope ISAC 110.30 MHz 10 nm / 19 km 33.01° 19.49° 3.00° 18 ft / 5 m (AMSL)

Popular Alternatives